sensor_id;sensor_type;location;lat;lon;timestamp;pressure;altitude;pressure_sealevel;temperature;humidity
70900;BME280;67902;52.154;5.430;2024-03-22T00:00:30;102155.06;;;10.86;100.00
70900;BME280;67902;52.154;5.430;2024-03-22T00:02:56;102162.41;;;10.86;100.00
70900;BME280;67902;52.154;5.430;2024-03-22T00:05:21;102159.47;;;10.87;100.00
70900;BME280;67902;52.154;5.430;2024-03-22T00:07:47;102160.91;;;10.90;100.00
70900;BME280;67902;52.154;5.430;2024-03-22T00:10:13;102141.94;;;10.90;100.00
70900;BME280;67902;52.154;5.430;2024-03-22T00:12:39;102145.50;;;10.90;100.00
70900;BME280;67902;52.154;5.430;2024-03-22T00:15:05;102137.59;;;10.89;100.00
70900;BME280;67902;52.154;5.430;2024-03-22T00:17:31;102135.91;;;10.88;100.00
70900;BME280;67902;52.154;5.430;2024-03-22T00:19:57;102124.25;;;10.87;100.00
70900;BME280;67902;52.154;5.430;2024-03-22T00:22:22;102116.34;;;10.86;100.00
70900;BME280;67902;52.154;5.430;2024-03-22T00:24:48;102112.19;;;10.83;100.00
70900;BME280;67902;52.154;5.430;2024-03-22T00:27:13;102113.00;;;10.84;100.00
70900;BME280;67902;52.154;5.430;2024-03-22T00:29:39;102111.34;;;10.83;100.00
70900;BME280;67902;52.154;5.430;2024-03-22T00:32:04;102103.22;;;10.83;100.00
70900;BME280;67902;52.154;5.430;2024-03-22T00:34:30;102100.69;;;10.81;100.00
70900;BME280;67902;52.154;5.430;2024-03-22T00:36:55;102098.84;;;10.82;100.00
70900;BME280;67902;52.154;5.430;2024-03-22T00:39:21;102105.28;;;10.81;100.00
70900;BME280;67902;52.154;5.430;2024-03-22T00:41:46;102092.19;;;10.78;100.00
70900;BME280;67902;52.154;5.430;2024-03-22T00:44:12;102088.84;;;10.76;100.00
70900;BME280;67902;52.154;5.430;2024-03-22T00:46:37;102073.66;;;10.75;100.00
70900;BME280;67902;52.154;5.430;2024-03-22T00:49:03;102068.66;;;10.72;100.00
70900;BME280;67902;52.154;5.430;2024-03-22T00:51:29;102068.88;;;10.70;100.00
70900;BME280;67902;52.154;5.430;2024-03-22T00:53:54;102060.97;;;10.69;100.00
70900;BME280;67902;52.154;5.430;2024-03-22T00:56:20;102060.31;;;10.67;100.00
70900;BME280;67902;52.154;5.430;2024-03-22T00:58:45;102057.19;;;10.70;100.00
70900;BME280;67902;52.154;5.430;2024-03-22T01:01:11;102050.97;;;10.69;100.00
70900;BME280;67902;52.154;5.430;2024-03-22T01:03:36;102051.78;;;10.70;100.00
70900;BME280;67902;52.154;5.430;2024-03-22T01:06:02;102050.13;;;10.69;100.00
70900;BME280;67902;52.154;5.430;2024-03-22T01:08:27;102059.28;;;10.68;100.00
70900;BME280;67902;52.154;5.430;2024-03-22T01:10:53;102053.88;;;10.68;100.00
70900;BME280;67902;52.154;5.430;2024-03-22T01:13:19;102053.88;;;10.68;100.00
70900;BME280;67902;52.154;5.430;2024-03-22T01:15:44;102044.72;;;10.69;100.00
70900;BME280;67902;52.154;5.430;2024-03-22T01:18:11;102041.38;;;10.67;100.00
70900;BME280;67902;52.154;5.430;2024-03-22T01:20:37;102045.31;;;10.71;100.00
70900;BME280;67902;52.154;5.430;2024-03-22T01:23:03;102053.44;;;10.71;100.00
70900;BME280;67902;52.154;5.430;2024-03-22T01:25:29;102054.28;;;10.71;100.00
70900;BME280;67902;52.154;5.430;2024-03-22T01:27:55;102045.09;;;10.72;100.00
70900;BME280;67902;52.154;5.430;2024-03-22T01:30:21;102045.31;;;10.71;100.00
70900;BME280;67902;52.154;5.430;2024-03-22T01:32:47;102038.44;;;10.75;100.00
70900;BME280;67902;52.154;5.430;2024-03-22T01:35:13;102042.78;;;10.76;100.00
70900;BME280;67902;52.154;5.430;2024-03-22T01:37:38;102032.59;;;10.78;100.00
70900;BME280;67902;52.154;5.430;2024-03-22T01:40:04;102034.47;;;10.77;100.00
70900;BME280;67902;52.154;5.430;2024-03-22T01:42:30;102035.69;;;10.81;100.00
70900;BME280;67902;52.154;5.430;2024-03-22T01:44:56;102031.69;;;10.84;100.00
70900;BME280;67902;52.154;5.430;2024-03-22T01:47:21;102022.94;;;10.88;100.00
70900;BME280;67902;52.154;5.430;2024-03-22T01:49:49;102011.88;;;10.90;100.00
70900;BME280;67902;52.154;5.430;2024-03-22T01:52:16;102023.31;;;10.92;100.00
70900;BME280;67902;52.154;5.430;2024-03-22T01:54:41;102023.31;;;10.92;100.00
70900;BME280;67902;52.154;5.430;2024-03-22T01:57:08;102017.91;;;10.92;100.00
70900;BME280;67902;52.154;5.430;2024-03-22T01:59:34;102022.28;;;10.93;100.00
70900;BME280;67902;52.154;5.430;2024-03-22T02:01:59;102017.09;;;10.91;100.00
70900;BME280;67902;52.154;5.430;2024-03-22T02:04:25;102025.41;;;10.90;100.00
70900;BME280;67902;52.154;5.430;2024-03-22T02:06:51;102028.72;;;10.92;100.00
70900;BME280;67902;52.154;5.430;2024-03-22T02:09:16;102026.03;;;10.92;100.00
70900;BME280;67902;52.154;5.430;2024-03-22T02:11:42;102025.00;;;10.93;100.00
70900;BME280;67902;52.154;5.430;2024-03-22T02:14:08;102021.84;;;10.96;100.00
70900;BME280;67902;52.154;5.430;2024-03-22T02:16:33;102014.31;;;10.98;100.00
70900;BME280;67902;52.154;5.430;2024-03-22T02:18:59;102004.53;;;10.97;100.00
70900;BME280;67902;52.154;5.430;2024-03-22T02:21:24;102006.19;;;10.98;100.00
70900;BME280;67902;52.154;5.430;2024-03-22T02:23:50;102009.97;;;10.97;100.00
70900;BME280;67902;52.154;5.430;2024-03-22T02:26:16;102008.28;;;10.96;100.00
70900;BME280;67902;52.154;5.430;2024-03-22T02:28:41;101995.78;;;10.95;100.00
70900;BME280;67902;52.154;5.430;2024-03-22T02:31:07;101992.25;;;10.94;100.00
70900;BME280;67902;52.154;5.430;2024-03-22T02:33:32;101990.78;;;10.92;100.00
70900;BME280;67902;52.154;5.430;2024-03-22T02:35:58;101987.03;;;10.93;100.00
70900;BME280;67902;52.154;5.430;2024-03-22T02:38:23;101992.69;;;10.91;100.00
70900;BME280;67902;52.154;5.430;2024-03-22T02:40:51;101988.56;;;10.89;100.00
70900;BME280;67902;52.154;5.430;2024-03-22T02:43:17;101984.16;;;10.88;100.00
70900;BME280;67902;52.154;5.430;2024-03-22T02:45:47;101985.22;;;10.87;100.00
70900;BME280;67902;52.154;5.430;2024-03-22T02:48:13;101972.09;;;10.84;100.00
70900;BME280;67902;52.154;5.430;2024-03-22T02:50:39;101968.78;;;10.82;100.00
70900;BME280;67902;52.154;5.430;2024-03-22T02:53:05;101959.44;;;10.78;100.00
70900;BME280;67902;52.154;5.430;2024-03-22T02:55:36;101957.97;;;10.75;100.00
70900;BME280;67902;52.154;5.430;2024-03-22T02:58:01;101956.53;;;10.73;100.00
70900;BME280;67902;52.154;5.430;2024-03-22T03:00:28;101954.88;;;10.72;100.00
70900;BME280;67902;52.154;5.430;2024-03-22T03:02:53;101941.78;;;10.69;100.00
70900;BME280;67902;52.154;5.430;2024-03-22T03:05:19;101931.38;;;10.66;100.00
70900;BME280;67902;52.154;5.430;2024-03-22T03:07:44;101925.34;;;10.64;100.00
70900;BME280;67902;52.154;5.430;2024-03-22T03:10:11;101914.72;;;10.62;100.00
70900;BME280;67902;52.154;5.430;2024-03-22T03:12:37;101906.81;;;10.61;100.00
70900;BME280;67902;52.154;5.430;2024-03-22T03:15:03;101903.47;;;10.59;100.00
70900;BME280;67902;52.154;5.430;2024-03-22T03:17:28;101907.47;;;10.56;100.00
70900;BME280;67902;52.154;5.430;2024-03-22T03:19:54;101902.28;;;10.55;100.00
70900;BME280;67902;52.154;5.430;2024-03-22T03:22:20;101908.72;;;10.54;100.00
70900;BME280;67902;52.154;5.430;2024-03-22T03:24:45;101909.75;;;10.53;100.00
70900;BME280;67902;52.154;5.430;2024-03-22T03:27:11;101901.88;;;10.51;100.00
70900;BME280;67902;52.154;5.430;2024-03-22T03:29:36;101899.81;;;10.46;100.00
70900;BME280;67902;52.154;5.430;2024-03-22T03:32:02;101892.97;;;10.44;100.00
70900;BME280;67902;52.154;5.430;2024-03-22T03:34:28;101894.22;;;10.41;100.00
70900;BME280;67902;52.154;5.430;2024-03-22T03:36:53;101887.34;;;10.39;100.00
70900;BME280;67902;52.154;5.430;2024-03-22T03:39:19;101884.28;;;10.35;100.00
70900;BME280;67902;52.154;5.430;2024-03-22T03:41:44;101876.59;;;10.32;100.00
70900;BME280;67902;52.154;5.430;2024-03-22T03:44:10;101865.34;;;10.29;100.00
70900;BME280;67902;52.154;5.430;2024-03-22T03:46:35;101866.63;;;10.26;100.00
70900;BME280;67902;52.154;5.430;2024-03-22T03:49:01;101853.72;;;10.22;100.00
70900;BME280;67902;52.154;5.430;2024-03-22T03:51:26;101866.63;;;10.20;100.00
70900;BME280;67902;52.154;5.430;2024-03-22T03:53:52;101858.75;;;10.18;100.00
70900;BME280;67902;52.154;5.430;2024-03-22T03:56:17;101861.66;;;10.17;100.00
70900;BME280;67902;52.154;5.430;2024-03-22T03:58:45;101857.50;;;10.14;100.00
70900;BME280;67902;52.154;5.430;2024-03-22T04:01:11;101873.75;;;10.14;100.00
70900;BME280;67902;52.154;5.430;2024-03-22T04:03:37;101865.84;;;10.13;100.00
70900;BME280;67902;52.154;5.430;2024-03-22T04:06:02;101867.91;;;10.11;100.00
70900;BME280;67902;52.154;5.430;2024-03-22T04:08:28;101855.19;;;10.11;100.00
70900;BME280;67902;52.154;5.430;2024-03-22T04:10:54;101856.88;;;10.12;100.00
70900;BME280;67902;52.154;5.430;2024-03-22T04:13:27;101864.16;;;10.12;100.00
70900;BME280;67902;52.154;5.430;2024-03-22T04:15:53;101862.47;;;10.11;100.00
70900;BME280;67902;52.154;5.430;2024-03-22T04:18:19;101863.16;;;10.13;100.00
70900;BME280;67902;52.154;5.430;2024-03-22T04:20:58;101865.00;;;10.12;100.00
70900;BME280;67902;52.154;5.430;2024-03-22T04:23:25;101868.72;;;10.11;100.00
70900;BME280;67902;52.154;5.430;2024-03-22T04:25:58;101871.66;;;10.10;100.00
70900;BME280;67902;52.154;5.430;2024-03-22T04:28:28;101865.41;;;10.09;100.00
70900;BME280;67902;52.154;5.430;2024-03-22T04:31:07;101858.34;;;10.08;100.00
70900;BME280;67902;52.154;5.430;2024-03-22T04:33:36;101860.44;;;10.06;100.00
70900;BME280;67902;52.154;5.430;2024-03-22T04:36:03;101859.00;;;10.04;100.00
70900;BME280;67902;52.154;5.430;2024-03-22T04:38:29;101856.50;;;10.02;100.00
70900;BME280;67902;52.154;5.430;2024-03-22T04:40:56;101860.25;;;10.01;100.00
70900;BME280;67902;52.154;5.430;2024-03-22T04:43:25;101856.31;;;9.97;100.00
70900;BME280;67902;52.154;5.430;2024-03-22T04:45:51;101852.75;;;9.97;100.00
70900;BME280;67902;52.154;5.430;2024-03-22T04:48:18;101856.75;;;9.94;100.00
70900;BME280;67902;52.154;5.430;2024-03-22T04:50:45;101863.41;;;9.91;100.00
70900;BME280;67902;52.154;5.430;2024-03-22T04:53:10;101858.84;;;9.92;100.00
70900;BME280;67902;52.154;5.430;2024-03-22T04:55:36;101855.53;;;9.90;100.00
70900;BME280;67902;52.154;5.430;2024-03-22T04:58:03;101864.47;;;9.90;100.00
70900;BME280;67902;52.154;5.430;2024-03-22T05:00:28;101855.53;;;9.90;100.00
70900;BME280;67902;52.154;5.430;2024-03-22T05:02:54;101865.28;;;9.91;100.00
70900;BME280;67902;52.154;5.430;2024-03-22T05:05:20;101867.97;;;9.91;100.00
70900;BME280;67902;52.154;5.430;2024-03-22T05:07:46;101868.81;;;9.91;100.00
70900;BME280;67902;52.154;5.430;2024-03-22T05:10:12;101869.47;;;9.94;100.00
70900;BME280;67902;52.154;5.430;2024-03-22T05:12:37;101867.78;;;9.93;100.00
70900;BME280;67902;52.154;5.430;2024-03-22T05:15:04;101862.97;;;9.95;100.00
70900;BME280;67902;52.154;5.430;2024-03-22T05:17:30;101854.03;;;9.94;100.00
70900;BME280;67902;52.154;5.430;2024-03-22T05:20:00;101867.34;;;9.96;100.00
70900;BME280;67902;52.154;5.430;2024-03-22T05:22:26;101864.66;;;9.96;100.00
70900;BME280;67902;52.154;5.430;2024-03-22T05:24:51;101868.19;;;9.96;100.00
70900;BME280;67902;52.154;5.430;2024-03-22T05:27:17;101863.59;;;9.97;100.00
70900;BME280;67902;52.154;5.430;2024-03-22T05:29:43;101851.31;;;9.94;100.00
70900;BME280;67902;52.154;5.430;2024-03-22T05:32:08;101845.91;;;9.94;100.00
70900;BME280;67902;52.154;5.430;2024-03-22T05:34:34;101848.63;;;9.94;100.00
70900;BME280;67902;52.154;5.430;2024-03-22T05:37:01;101843.44;;;9.93;100.00
70900;BME280;67902;52.154;5.430;2024-03-22T05:39:26;101839.06;;;9.91;100.00
70900;BME280;67902;52.154;5.430;2024-03-22T05:41:52;101836.34;;;9.91;100.00
70900;BME280;67902;52.154;5.430;2024-03-22T05:44:18;101835.75;;;9.89;100.00
70900;BME280;67902;52.154;5.430;2024-03-22T05:46:43;101833.03;;;9.89;100.00
70900;BME280;67902;52.154;5.430;2024-03-22T05:49:09;101829.72;;;9.87;100.00
70900;BME280;67902;52.154;5.430;2024-03-22T05:51:34;101831.59;;;9.87;100.00
70900;BME280;67902;52.154;5.430;2024-03-22T05:54:00;101832.63;;;9.86;100.00
70900;BME280;67902;52.154;5.430;2024-03-22T05:56:25;101830.16;;;9.84;100.00
70900;BME280;67902;52.154;5.430;2024-03-22T05:58:51;101825.59;;;9.85;100.00
70900;BME280;67902;52.154;5.430;2024-03-22T06:01:16;101816.41;;;9.86;100.00
70900;BME280;67902;52.154;5.430;2024-03-22T06:03:42;101812.66;;;9.87;100.00
70900;BME280;67902;52.154;5.430;2024-03-22T06:06:07;101808.09;;;9.87;100.00
70900;BME280;67902;52.154;5.430;2024-03-22T06:08:33;101815.13;;;9.88;100.00
70900;BME280;67902;52.154;5.430;2024-03-22T06:11:00;101824.69;;;9.91;100.00
70900;BME280;67902;52.154;5.430;2024-03-22T06:13:26;101809.72;;;9.95;100.00
70900;BME280;67902;52.154;5.430;2024-03-22T06:15:53;101806.78;;;9.97;100.00
70900;BME280;67902;52.154;5.430;2024-03-22T06:18:18;101813.03;;;9.97;100.00
70900;BME280;67902;52.154;5.430;2024-03-22T06:20:44;101812.81;;;9.99;100.00
70900;BME280;67902;52.154;5.430;2024-03-22T06:23:09;101813.84;;;9.98;100.00
70900;BME280;67902;52.154;5.430;2024-03-22T06:25:35;101808.00;;;10.01;100.00
70900;BME280;67902;52.154;5.430;2024-03-22T06:28:01;101806.75;;;10.03;100.00
70900;BME280;67902;52.154;5.430;2024-03-22T06:30:27;101796.31;;;10.07;100.00
70900;BME280;67902;52.154;5.430;2024-03-22T06:32:56;101802.75;;;10.12;100.00
70900;BME280;67902;52.154;5.430;2024-03-22T06:35:21;101800.69;;;10.14;100.00
70900;BME280;67902;52.154;5.430;2024-03-22T06:37:47;101816.28;;;10.19;100.00
70900;BME280;67902;52.154;5.430;2024-03-22T06:40:14;101800.84;;;10.19;100.00
70900;BME280;67902;52.154;5.430;2024-03-22T06:42:40;101800.41;;;10.22;100.00
70900;BME280;67902;52.154;5.430;2024-03-22T06:45:06;101799.53;;;10.28;100.00
70900;BME280;67902;52.154;5.430;2024-03-22T06:47:32;101796.19;;;10.33;100.00
70900;BME280;67902;52.154;5.430;2024-03-22T06:49:57;101801.97;;;10.36;100.00
70900;BME280;67902;52.154;5.430;2024-03-22T06:52:23;101804.84;;;10.41;100.00
70900;BME280;67902;52.154;5.430;2024-03-22T06:54:49;101802.78;;;10.43;100.00
70900;BME280;67902;52.154;5.430;2024-03-22T06:57:14;101799.81;;;10.52;100.00
70900;BME280;67902;52.154;5.430;2024-03-22T06:59:40;101802.91;;;10.55;100.00
70900;BME280;67902;52.154;5.430;2024-03-22T07:02:05;101797.84;;;10.59;100.00
70900;BME280;67902;52.154;5.430;2024-03-22T07:04:31;101796.16;;;10.64;100.00
70900;BME280;67902;52.154;5.430;2024-03-22T07:06:56;101815.06;;;10.71;100.00
70900;BME280;67902;52.154;5.430;2024-03-22T07:09:22;101811.47;;;10.77;100.00
70900;BME280;67902;52.154;5.430;2024-03-22T07:11:48;101805.47;;;10.75;100.00
70900;BME280;67902;52.154;5.430;2024-03-22T07:14:13;101803.38;;;10.70;100.00
70900;BME280;67902;52.154;5.430;2024-03-22T07:16:39;101799.25;;;10.68;100.00
70900;BME280;67902;52.154;5.430;2024-03-22T07:19:04;101803.81;;;10.67;100.00
70900;BME280;67902;52.154;5.430;2024-03-22T07:21:31;101797.56;;;10.67;100.00
70900;BME280;67902;52.154;5.430;2024-03-22T07:23:56;101801.28;;;10.72;100.00
70900;BME280;67902;52.154;5.430;2024-03-22T07:26:22;101802.13;;;10.73;100.00
70900;BME280;67902;52.154;5.430;2024-03-22T07:28:48;101802.13;;;10.73;100.00
70900;BME280;67902;52.154;5.430;2024-03-22T07:31:13;101797.13;;;10.70;100.00
70900;BME280;67902;52.154;5.430;2024-03-22T07:33:39;101802.19;;;10.66;100.00
70900;BME280;67902;52.154;5.430;2024-03-22T07:36:06;101804.28;;;10.64;100.00
70900;BME280;67902;52.154;5.430;2024-03-22T07:38:32;101809.09;;;10.62;100.00
70900;BME280;67902;52.154;5.430;2024-03-22T07:40:57;101803.91;;;10.61;100.00
70900;BME280;67902;52.154;5.430;2024-03-22T07:43:23;101803.06;;;10.60;100.00
70900;BME280;67902;52.154;5.430;2024-03-22T07:45:49;101792.66;;;10.57;100.00
70900;BME280;67902;52.154;5.430;2024-03-22T07:48:14;101790.16;;;10.56;100.00
70900;BME280;67902;52.154;5.430;2024-03-22T07:50:40;101795.81;;;10.54;100.00
70900;BME280;67902;52.154;5.430;2024-03-22T07:53:05;101791.84;;;10.57;100.00
70900;BME280;67902;52.154;5.430;2024-03-22T07:55:31;101798.28;;;10.56;100.00
70900;BME280;67902;52.154;5.430;2024-03-22T07:57:56;101801.00;;;10.56;100.00
70900;BME280;67902;52.154;5.430;2024-03-22T08:00:23;101802.91;;;10.55;100.00
70900;BME280;67902;52.154;5.430;2024-03-22T08:02:51;101795.22;;;10.52;100.00
70900;BME280;67902;52.154;5.430;2024-03-22T08:05:17;101794.38;;;10.52;100.00
70900;BME280;67902;52.154;5.430;2024-03-22T08:07:42;101800.63;;;10.52;100.00
70900;BME280;67902;52.154;5.430;2024-03-22T08:10:09;101798.13;;;10.51;100.00
70900;BME280;67902;52.154;5.430;2024-03-22T08:12:35;101785.44;;;10.51;100.00
70900;BME280;67902;52.154;5.430;2024-03-22T08:15:01;101784.00;;;10.48;100.00
70900;BME280;67902;52.154;5.430;2024-03-22T08:17:26;101789.41;;;10.48;100.00
70900;BME280;67902;52.154;5.430;2024-03-22T08:19:52;101796.09;;;10.46;100.00
70900;BME280;67902;52.154;5.430;2024-03-22T08:22:17;101789.25;;;10.43;100.00
70900;BME280;67902;52.154;5.430;2024-03-22T08:24:43;101800.50;;;10.40;100.00
70900;BME280;67902;52.154;5.430;2024-03-22T08:27:08;101797.81;;;10.40;100.00
70900;BME280;67902;52.154;5.430;2024-03-22T08:29:34;101796.56;;;10.36;100.00
70900;BME280;67902;52.154;5.430;2024-03-22T08:31:59;101795.72;;;10.36;100.00
70900;BME280;67902;52.154;5.430;2024-03-22T08:34:28;101798.25;;;10.37;100.00
70900;BME280;67902;52.154;5.430;2024-03-22T08:36:54;101790.38;;;10.29;100.00
70900;BME280;67902;52.154;5.430;2024-03-22T08:39:19;101791.66;;;10.27;100.00
70900;BME280;67902;52.154;5.430;2024-03-22T08:41:45;101791.41;;;10.28;100.00
70900;BME280;67902;52.154;5.430;2024-03-22T08:44:11;101795.81;;;10.29;100.00
70900;BME280;67902;52.154;5.430;2024-03-22T08:46:36;101786.69;;;10.24;100.00
70900;BME280;67902;52.154;5.430;2024-03-22T08:49:02;101782.53;;;10.21;100.00
70900;BME280;67902;52.154;5.430;2024-03-22T08:51:28;101791.25;;;10.23;100.00
70900;BME280;67902;52.154;5.430;2024-03-22T08:53:54;101787.50;;;10.24;100.00
70900;BME280;67902;52.154;5.430;2024-03-22T08:56:20;101793.28;;;10.28;100.00
70900;BME280;67902;52.154;5.430;2024-03-22T08:58:45;101787.03;;;10.27;100.00
70900;BME280;67902;52.154;5.430;2024-03-22T09:01:11;101794.97;;;10.29;100.00
70900;BME280;67902;52.154;5.430;2024-03-22T09:03:37;101791.25;;;10.23;100.00
70900;BME280;67902;52.154;5.430;2024-03-22T09:06:02;101790.03;;;10.19;100.00
70900;BME280;67902;52.154;5.430;2024-03-22T09:08:28;101782.13;;;10.18;100.00
70900;BME280;67902;52.154;5.430;2024-03-22T09:10:55;101788.97;;;10.20;100.00
70900;BME280;67902;52.154;5.430;2024-03-22T09:13:20;101783.56;;;10.20;100.00
70900;BME280;67902;52.154;5.430;2024-03-22T09:15:46;101789.22;;;10.19;100.00
70900;BME280;67902;52.154;5.430;2024-03-22T09:18:11;101790.66;;;10.21;100.00
70900;BME280;67902;52.154;5.430;2024-03-22T09:20:37;101782.13;;;10.18;100.00
70900;BME280;67902;52.154;5.430;2024-03-22T09:23:02;101777.13;;;10.21;100.00
70900;BME280;67902;52.154;5.430;2024-03-22T09:25:29;101780.44;;;10.23;100.00
70900;BME280;67902;52.154;5.430;2024-03-22T09:27:54;101779.97;;;10.33;100.00
70900;BME280;67902;52.154;5.430;2024-03-22T09:30:20;101772.44;;;10.35;100.00
70900;BME280;67902;52.154;5.430;2024-03-22T09:32:47;101775.16;;;10.35;100.00
70900;BME280;67902;52.154;5.430;2024-03-22T09:35:12;101777.78;;;10.41;100.00
70900;BME280;67902;52.154;5.430;2024-03-22T09:37:41;101770.72;;;10.40;100.00
70900;BME280;67902;52.154;5.430;2024-03-22T09:40:07;101771.56;;;10.41;100.00
70900;BME280;67902;52.154;5.430;2024-03-22T09:42:33;101774.63;;;10.44;100.00
70900;BME280;67902;52.154;5.430;2024-03-22T09:45:04;101777.78;;;10.41;100.00
70900;BME280;67902;52.154;5.430;2024-03-22T09:47:33;101770.13;;;10.38;100.00
70900;BME280;67902;52.154;5.430;2024-03-22T09:50:00;101769.94;;;10.33;100.00
70900;BME280;67902;52.154;5.430;2024-03-22T09:52:26;101763.47;;;10.34;100.00
70900;BME280;67902;52.154;5.430;2024-03-22T09:54:53;101767.59;;;10.43;100.00
70900;BME280;67902;52.154;5.430;2024-03-22T09:57:21;101770.06;;;10.45;100.00
70900;BME280;67902;52.154;5.430;2024-03-22T09:59:46;101763.53;;;10.53;100.00
70900;BME280;67902;52.154;5.430;2024-03-22T10:02:13;101771.06;;;10.51;100.00
70900;BME280;67902;52.154;5.430;2024-03-22T10:04:42;101766.94;;;10.41;100.00
70900;BME280;67902;52.154;5.430;2024-03-22T10:07:08;101759.94;;;10.34;100.00
70900;BME280;67902;52.154;5.430;2024-03-22T10:09:34;101757.84;;;10.36;100.00
70900;BME280;67902;52.154;5.430;2024-03-22T10:12:00;101760.28;;;10.44;100.00
70900;BME280;67902;52.154;5.430;2024-03-22T10:14:26;101759.63;;;10.48;100.00
70900;BME280;67902;52.154;5.430;2024-03-22T10:16:52;101757.66;;;10.56;100.00
70900;BME280;67902;52.154;5.430;2024-03-22T10:19:20;101760.13;;;10.64;100.00
70900;BME280;67902;52.154;5.430;2024-03-22T10:21:46;101763.00;;;10.69;100.00
70900;BME280;67902;52.154;5.430;2024-03-22T10:24:12;101748.78;;;10.73;100.00
70900;BME280;67902;52.154;5.430;2024-03-22T10:26:39;101749.31;;;10.82;100.00
70900;BME280;67902;52.154;5.430;2024-03-22T10:29:06;101746.91;;;10.92;100.00
70900;BME280;67902;52.154;5.430;2024-03-22T10:31:34;101752.81;;;10.89;100.00
70900;BME280;67902;52.154;5.430;2024-03-22T10:34:02;101748.28;;;10.83;100.00
70900;BME280;67902;52.154;5.430;2024-03-22T10:36:29;101751.47;;;10.73;100.00
70900;BME280;67902;52.154;5.430;2024-03-22T10:38:57;101753.34;;;10.73;100.00
70900;BME280;67902;52.154;5.430;2024-03-22T10:41:25;101750.03;;;10.71;100.00
70900;BME280;67902;52.154;5.430;2024-03-22T10:43:50;101755.91;;;10.68;100.00
70900;BME280;67902;52.154;5.430;2024-03-22T10:46:20;101750.44;;;10.74;100.00
70900;BME280;67902;52.154;5.430;2024-03-22T10:48:46;101760.44;;;10.74;100.00
70900;BME280;67902;52.154;5.430;2024-03-22T10:51:14;101756.69;;;10.75;100.00
70900;BME280;67902;52.154;5.430;2024-03-22T10:53:40;101756.69;;;10.75;100.00
70900;BME280;67902;52.154;5.430;2024-03-22T10:56:07;101754.34;;;10.78;100.00
70900;BME280;67902;52.154;5.430;2024-03-22T10:58:39;101755.56;;;10.82;100.00
70900;BME280;67902;52.154;5.430;2024-03-22T11:01:05;101750.19;;;10.76;100.00
70900;BME280;67902;52.154;5.430;2024-03-22T11:03:30;101757.72;;;10.74;100.00
70900;BME280;67902;52.154;5.430;2024-03-22T11:05:56;101749.59;;;10.74;100.00
70900;BME280;67902;52.154;5.430;2024-03-22T11:08:26;101743.31;;;10.80;100.00
70900;BME280;67902;52.154;5.430;2024-03-22T11:10:53;101740.69;;;10.91;100.00
70900;BME280;67902;52.154;5.430;2024-03-22T11:13:19;101745.03;;;10.92;100.00
70900;BME280;67902;52.154;5.430;2024-03-22T11:15:49;101737.53;;;10.94;100.00
70900;BME280;67902;52.154;5.430;2024-03-22T11:18:14;101739.56;;;10.99;100.00
70900;BME280;67902;52.154;5.430;2024-03-22T11:20:41;101733.38;;;11.10;100.00
70900;BME280;67902;52.154;5.430;2024-03-22T11:23:07;101733.38;;;11.10;100.00
70900;BME280;67902;52.154;5.430;2024-03-22T11:25:34;101736.63;;;11.19;100.00
70900;BME280;67902;52.154;5.430;2024-03-22T11:28:00;101732.63;;;11.21;100.00
70900;BME280;67902;52.154;5.430;2024-03-22T11:30:28;101722.00;;;11.38;100.00
70900;BME280;67902;52.154;5.430;2024-03-22T11:32:54;101723.09;;;11.67;100.00
70900;BME280;67902;52.154;5.430;2024-03-22T11:35:21;101720.00;;;11.81;100.00
70900;BME280;67902;52.154;5.430;2024-03-22T11:37:47;101723.84;;;12.03;100.00
70900;BME280;67902;52.154;5.430;2024-03-22T11:40:12;101710.66;;;12.07;100.00
70900;BME280;67902;52.154;5.430;2024-03-22T11:42:42;101706.09;;;11.89;100.00
70900;BME280;67902;52.154;5.430;2024-03-22T11:45:10;101710.28;;;11.74;100.00
70900;BME280;67902;52.154;5.430;2024-03-22T11:47:36;101708.03;;;11.71;100.00
70900;BME280;67902;52.154;5.430;2024-03-22T11:50:02;101709.69;;;11.72;100.00
70900;BME280;67902;52.154;5.430;2024-03-22T11:52:28;101705.69;;;11.74;100.00
70900;BME280;67902;52.154;5.430;2024-03-22T11:54:54;101703.72;;;11.63;100.00
70900;BME280;67902;52.154;5.430;2024-03-22T11:57:20;101704.31;;;11.65;100.00
70900;BME280;67902;52.154;5.430;2024-03-22T11:59:46;101698.69;;;11.48;100.00
70900;BME280;67902;52.154;5.430;2024-03-22T12:02:12;101702.88;;;11.33;100.00
70900;BME280;67902;52.154;5.430;2024-03-22T12:04:46;101692.09;;;11.26;100.00
70900;BME280;67902;52.154;5.430;2024-03-22T12:07:17;101702.81;;;11.21;100.00
70900;BME280;67902;52.154;5.430;2024-03-22T12:09:43;101704.03;;;11.07;100.00
70900;BME280;67902;52.154;5.430;2024-03-22T12:12:11;101693.63;;;11.04;100.00
70900;BME280;67902;52.154;5.430;2024-03-22T12:14:40;101690.91;;;11.04;100.00
70900;BME280;67902;52.154;5.430;2024-03-22T12:17:06;101693.78;;;11.09;100.00
70900;BME280;67902;52.154;5.430;2024-03-22T12:19:33;101686.72;;;11.08;100.00
70900;BME280;67902;52.154;5.430;2024-03-22T12:21:59;101692.72;;;11.10;100.00
70900;BME280;67902;52.154;5.430;2024-03-22T12:24:25;101693.13;;;11.14;100.00
70900;BME280;67902;52.154;5.430;2024-03-22T12:26:51;101686.72;;;11.08;100.00
70900;BME280;67902;52.154;5.430;2024-03-22T12:29:16;101694.84;;;10.90;100.00
70900;BME280;67902;52.154;5.430;2024-03-22T12:31:42;101689.72;;;10.82;100.00
70900;BME280;67902;52.154;5.430;2024-03-22T12:34:08;101694.16;;;10.76;100.00